Terminal Aerodrome Forecast
Issued by NWS Grand Junction, CO

Home | Current Version | Previous Version | Text Only | Print | Product List | Glossary On
Versions: 1 2 3 4 5 6 7 8 9 10 11 12 13 14 15 16 17 18 19 20 21 22 23 24 25 26 27
000
FTUS45 KGJT 301735
TAFGJT
TAF
KGJT 301735Z 3018/3118 12010KT P6SM SCT150
     FM302000 24010G15KT P6SM FEW100 BKN150
     FM310200 14005KT P6SM BKN150
     FM310600 12010KT P6SM SCT150 SCT200=

USA.gov is the U.S. government's official web portal to all federal, state and local government web resources and services.